Time;durP1;ratioP1;P1;durP2;ratioP2;P2;SDS_P1;SDS_P2;PMS_P1;PMS_P2;Temp;Humidity;BMP_temperature;BMP_pressure;BME280_temperature;BME280_humidity;BME280_pressure;Samples;Min_cycle;Max_cycle;Signal;HPM_P1;HPM_P2
2022/07/08 00:00:55;;;;;;;13.70;6.20;;;;;;;18.88;48.24;99169.24;105957;1278;107827;-66
2022/07/08 00:03:23;;;;;;;14.00;5.80;;;;;;;18.88;48.30;99165.50;105983;1280;97754;-66
2022/07/08 00:05:54;;;;;;;16.00;7.10;;;;;;;18.88;48.16;99164.59;105950;1278;99305;-66
2022/07/08 00:08:27;;;;;;;15.30;6.00;;;;;;;18.87;48.31;99168.77;105852;1280;113414;-67
2022/07/08 00:10:55;;;;;;;12.00;5.90;;;;;;;18.86;48.31;99170.51;106003;1279;99321;-66
2022/07/08 00:13:25;;;;;;;13.60;6.60;;;;;;;18.86;48.33;99170.20;105896;1277;109147;-68
2022/07/08 00:15:58;;;;;;;11.70;5.60;;;;;;;18.83;48.40;99173.06;105906;1279;96605;-67
2022/07/08 00:18:26;;;;;;;11.70;5.20;;;;;;;18.80;48.33;99166.91;105967;1279;99251;-65
2022/07/08 00:20:56;;;;;;;11.90;5.70;;;;;;;18.74;48.58;99168.23;105974;1279;113250;-67
2022/07/08 00:23:24;;;;;;;14.30;5.80;;;;;;;18.73;48.62;99170.61;105973;1279;99270;-67
2022/07/08 00:25:54;;;;;;;11.80;5.60;;;;;;;18.73;48.68;99170.13;105952;1279;108955;-67
2022/07/08 00:28:24;;;;;;;14.10;5.70;;;;;;;18.72;48.77;99170.90;105944;1279;99332;-65
2022/07/08 00:30:54;;;;;;;10.30;5.30;;;;;;;18.73;48.97;99168.69;106000;1279;99271;-67
2022/07/08 00:33:24;;;;;;;11.30;5.80;;;;;;;18.73;48.85;99167.73;105953;1279;113944;-66
2022/07/08 00:35:53;;;;;;;12.80;5.80;;;;;;;18.72;48.79;99166.96;105925;1279;99244;-67
2022/07/08 00:38:21;;;;;;;12.40;5.80;;;;;;;18.71;49.00;99166.22;105882;1279;108334;-66
2022/07/08 00:40:49;;;;;;;10.80;5.10;;;;;;;18.69;48.92;99169.13;105952;1279;99322;-65
2022/07/08 00:43:40;;;;;;;13.10;5.80;;;;;;;18.67;49.01;99168.02;105993;1280;96792;-68
2022/07/08 00:46:11;;;;;;;10.20;5.20;;;;;;;18.65;49.18;99165.81;105991;1279;112800;-66
2022/07/08 00:48:43;;;;;;;12.00;5.90;;;;;;;18.63;49.20;99167.75;105969;1279;99115;-65
2022/07/08 00:51:18;;;;;;;14.00;6.00;;;;;;;18.62;49.20;99165.90;105982;1279;107455;-65
2022/07/08 00:53:53;;;;;;;12.00;5.10;;;;;;;18.61;49.15;99170.81;105998;1278;99235;-66
2022/07/08 00:56:25;;;;;;;11.40;5.40;;;;;;;18.57;49.15;99170.28;105975;1279;99384;-66
2022/07/08 00:58:56;;;;;;;11.80;5.50;;;;;;;18.52;49.30;99172.82;105956;1279;112737;-66
2022/07/08 01:01:26;;;;;;;12.80;5.50;;;;;;;18.46;49.32;99170.75;105971;1279;99411;-70
2022/07/08 01:03:54;;;;;;;11.10;5.40;;;;;;;18.43;49.35;99168.73;105918;1280;107750;-65
2022/07/08 01:06:27;;;;;;;13.10;5.80;;;;;;;18.40;49.48;99170.09;105948;1279;99342;-66
2022/07/08 01:08:58;;;;;;;13.30;5.70;;;;;;;18.38;49.49;99167.80;105969;1279;99182;-68
2022/07/08 01:11:28;;;;;;;13.10;5.70;;;;;;;18.34;49.71;99167.38;105938;1279;111735;-66
2022/07/08 01:13:56;;;;;;;14.20;5.60;;;;;;;18.32;49.76;99169.85;105913;1279;99204;-64
2022/07/08 01:16:26;;;;;;;11.80;5.30;;;;;;;18.30;49.75;99165.57;105947;1280;109030;-65
2022/07/08 01:18:56;;;;;;;13.30;6.20;;;;;;;18.29;49.83;99163.91;105970;1279;99269;-67
2022/07/08 01:21:26;;;;;;;12.20;5.70;;;;;;;18.26;49.75;99163.83;105964;1279;97935;-66
2022/07/08 01:23:56;;;;;;;12.00;5.20;;;;;;;18.24;50.14;99162.98;105899;1279;111852;-61
2022/07/08 01:26:30;;;;;;;14.00;6.20;;;;;;;18.24;50.16;99163.31;105831;1279;96564;-61
2022/07/08 01:29:00;;;;;;;10.40;5.20;;;;;;;18.23;50.13;99164.34;105804;1279;108337;-62
2022/07/08 01:31:28;;;;;;;10.30;5.30;;;;;;;18.21;50.31;99165.43;105821;1279;99374;-64
2022/07/08 01:34:01;;;;;;;11.20;5.60;;;;;;;18.19;50.36;99165.13;105832;1279;96658;-62
2022/07/08 01:36:31;;;;;;;11.00;5.40;;;;;;;18.16;50.36;99167.16;105841;1279;113366;-64
2022/07/08 01:38:59;;;;;;;8.90;5.10;;;;;;;18.12;50.51;99165.96;105855;1279;99068;-64
2022/07/08 01:41:29;;;;;;;12.70;5.90;;;;;;;18.09;50.56;99167.25;105814;1279;108404;-63
2022/07/08 01:43:59;;;;;;;11.40;5.90;;;;;;;18.04;50.47;99165.00;105878;1279;99324;-62
2022/07/08 01:46:29;;;;;;;12.10;6.10;;;;;;;18.03;50.80;99163.17;105900;1279;99350;-64
2022/07/08 01:48:59;;;;;;;12.80;5.80;;;;;;;18.00;50.80;99160.61;105866;1279;116921;-61
2022/07/08 01:51:29;;;;;;;11.70;6.00;;;;;;;17.96;50.90;99162.88;105866;1279;99005;-63
2022/07/08 01:53:57;;;;;;;13.10;5.80;;;;;;;17.95;50.91;99161.60;105844;1279;108462;-64
2022/07/08 01:56:27;;;;;;;13.00;5.50;;;;;;;17.94;51.12;99164.02;105828;1279;99429;-64
2022/07/08 01:58:57;;;;;;;13.30;6.10;;;;;;;17.94;51.29;99165.46;105843;1279;99788;-69
2022/07/08 02:01:27;;;;;;;10.60;5.80;;;;;;;17.94;51.26;99166.40;105823;1279;113439;-67
2022/07/08 02:03:54;;;;;;;11.10;5.50;;;;;;;17.92;51.33;99166.73;105857;1279;99688;-65
2022/07/08 02:06:25;;;;;;;13.00;5.90;;;;;;;17.89;51.21;99169.70;105845;1279;108464;-67
2022/07/08 02:08:55;;;;;;;9.90;5.30;;;;;;;17.83;51.33;99168.48;105854;1279;96742;-65
2022/07/08 02:14:09;;;;;;;16.40;6.70;;;;;;;17.75;51.73;99168.67;105867;1279;113325;-67
2022/07/08 02:16:39;;;;;;;10.70;5.70;;;;;;;17.76;51.59;99166.23;105948;1279;99148;-66
2022/07/08 02:19:09;;;;;;;11.70;5.80;;;;;;;17.75;51.59;99168.61;105866;1280;108301;-66
2022/07/08 02:21:39;;;;;;;12.70;5.60;;;;;;;17.75;51.69;99170.23;105877;1279;99316;-68
2022/07/08 02:24:07;;;;;;;11.60;5.70;;;;;;;17.75;51.93;99171.10;105893;1279;99251;-65
2022/07/08 02:26:37;;;;;;;13.80;6.40;;;;;;;17.75;51.88;99175.73;105851;1280;112358;-65
2022/07/08 02:29:09;;;;;;;14.50;6.80;;;;;;;17.76;52.07;99176.92;105886;1278;99809;-67
2022/07/08 02:31:37;;;;;;;10.90;5.90;;;;;;;17.77;52.11;99182.95;105830;1281;107369;-66
2022/07/08 02:34:07;;;;;;;13.30;6.00;;;;;;;17.76;52.29;99179.52;105824;1280;99337;-68
2022/07/08 02:36:38;;;;;;;13.30;6.40;;;;;;;17.74;52.26;99184.47;105860;1279;99189;-65
2022/07/08 02:39:08;;;;;;;13.60;6.90;;;;;;;17.76;52.51;99185.81;105839;1279;113355;-66
2022/07/08 02:41:38;;;;;;;14.30;6.60;;;;;;;17.76;52.32;99185.77;105870;1279;99336;-66
2022/07/08 02:44:09;;;;;;;15.80;6.30;;;;;;;17.76;52.67;99189.36;105869;1280;108425;-66
2022/07/08 02:46:41;;;;;;;15.10;6.50;;;;;;;17.76;52.64;99189.48;105873;1281;99352;-66
2022/07/08 02:49:09;;;;;;;12.20;6.00;;;;;;;17.77;52.83;99189.58;105890;1279;99456;-65
2022/07/08 02:51:39;;;;;;;13.10;6.20;;;;;;;17.77;52.62;99188.51;105870;1279;113373;-64
2022/07/08 02:54:10;;;;;;;11.70;5.50;;;;;;;17.75;52.77;99188.04;105857;1279;99178;-65
2022/07/08 02:56:38;;;;;;;12.10;6.60;;;;;;;17.74;52.74;99187.17;105925;1281;107753;-65
2022/07/08 02:59:06;;;;;;;12.00;5.70;;;;;;;17.74;52.84;99191.81;105843;1280;99275;-67
2022/07/08 03:01:35;;;;;;;10.60;6.00;;;;;;;17.76;53.12;99194.38;105911;1279;99259;-66
2022/07/08 03:04:05;;;;;;;10.40;5.60;;;;;;;17.77;53.17;99196.77;105836;1281;113178;-67
2022/07/08 03:06:36;;;;;;;16.80;6.80;;;;;;;17.79;53.30;99198.71;105887;1279;99229;-65
2022/07/08 03:09:06;;;;;;;14.40;6.30;;;;;;;17.80;53.27;99202.33;105896;1281;108626;-65
2022/07/08 03:11:36;;;;;;;10.80;6.10;;;;;;;17.80;53.41;99202.55;105901;1279;96680;-66
2022/07/08 03:14:06;;;;;;;10.10;5.70;;;;;;;17.80;53.36;99203.60;105924;1280;99307;-66
2022/07/08 03:16:35;;;;;;;11.80;6.60;;;;;;;17.81;53.39;99204.21;105889;1279;113308;-65
2022/07/08 03:19:06;;;;;;;13.20;6.50;;;;;;;17.81;53.53;99208.11;105828;1280;99085;-65
2022/07/08 03:21:36;;;;;;;11.80;6.20;;;;;;;17.82;53.60;99208.60;105834;1280;108374;-64
2022/07/08 03:24:08;;;;;;;13.10;6.10;;;;;;;17.82;53.57;99209.88;105838;1279;99243;-65
2022/07/08 03:26:36;;;;;;;12.30;5.80;;;;;;;17.82;53.66;99211.11;105835;1281;99256;-66
2022/07/08 03:29:06;;;;;;;13.80;6.30;;;;;;;17.83;53.66;99213.38;105847;1281;113226;-66
2022/07/08 03:31:36;;;;;;;11.70;5.90;;;;;;;17.83;53.79;99213.88;105857;1279;99183;-66
2022/07/08 03:34:06;;;;;;;11.90;5.90;;;;;;;17.84;53.81;99219.38;105841;1280;107738;-68
2022/07/08 03:36:35;;;;;;;12.00;6.60;;;;;;;17.84;53.75;99222.40;105866;1281;99339;-67
2022/07/08 03:39:03;;;;;;;12.70;6.00;;;;;;;17.84;54.01;99221.84;105876;1281;99252;-71
2022/07/08 03:41:33;;;;;;;12.80;5.70;;;;;;;17.84;53.93;99224.02;105829;1280;115877;-68
2022/07/08 03:44:04;;;;;;;13.30;6.20;;;;;;;17.84;53.79;99227.08;105766;1280;96759;-66
2022/07/08 03:46:32;;;;;;;10.40;5.80;;;;;;;17.83;54.05;99230.94;105791;1280;108357;-65
2022/07/08 03:49:04;;;;;;;13.10;6.30;;;;;;;17.81;53.99;99233.09;103759;1281;2654410;-65
2022/07/08 03:51:32;;;;;;;13.00;6.30;;;;;;;17.79;54.19;99237.28;105841;1279;99300;-65
2022/07/08 03:54:00;;;;;;;12.10;6.30;;;;;;;17.77;54.26;99235.34;105693;1281;112633;-67
2022/07/08 03:56:29;;;;;;;10.90;5.90;;;;;;;17.78;54.32;99241.81;107418;1281;99103;-65
2022/07/08 03:58:57;;;;;;;13.90;6.40;;;;;;;17.78;54.36;99244.02;107469;1279;107839;-65
2022/07/08 04:01:25;;;;;;;12.10;6.40;;;;;;;17.79;54.13;99244.42;105962;1281;99253;-65
2022/07/08 04:03:56;;;;;;;15.80;6.80;;;;;;;17.81;54.36;99251.09;107464;1279;97201;-65
2022/07/08 04:06:24;;;;;;;13.10;6.40;;;;;;;17.81;54.42;99251.38;106703;1278;112886;-68
2022/07/08 04:08:51;;;;;;;15.30;7.20;;;;;;;17.82;54.36;99254.52;105882;1281;97101;-66
2022/07/08 04:11:21;;;;;;;13.60;6.80;;;;;;;17.82;54.49;99256.52;105851;1280;108731;-66
2022/07/08 04:13:49;;;;;;;11.90;6.30;;;;;;;17.80;54.63;99259.56;105830;1281;99319;-66
2022/07/08 04:16:17;;;;;;;16.10;6.50;;;;;;;17.80;54.73;99264.02;105716;1281;99889;-65
2022/07/08 04:18:47;;;;;;;12.90;6.70;;;;;;;17.80;54.75;99266.92;105754;1281;113476;-67
2022/07/08 04:21:18;;;;;;;14.00;6.80;;;;;;;17.77;54.79;99262.95;105763;1281;99258;-67
2022/07/08 04:23:45;;;;;;;14.70;7.20;;;;;;;17.77;54.85;99266.69;105767;1280;108321;-66
2022/07/08 04:26:13;;;;;;;13.60;7.00;;;;;;;17.77;55.07;99268.11;105845;1280;99341;-67
2022/07/08 04:28:41;;;;;;;16.20;7.00;;;;;;;17.78;54.99;99267.91;105832;1281;99385;-65
2022/07/08 04:31:10;;;;;;;12.50;6.80;;;;;;;17.79;55.10;99271.75;105814;1281;113072;-65
2022/07/08 04:33:41;;;;;;;14.40;7.50;;;;;;;17.80;55.19;99272.66;105742;1280;99353;-66
2022/07/08 04:36:11;;;;;;;16.20;6.90;;;;;;;17.82;55.02;99276.66;105776;1281;107858;-66
2022/07/08 04:38:39;;;;;;;14.90;6.60;;;;;;;17.81;55.18;99277.36;105783;1281;96725;-66
2022/07/08 04:41:09;;;;;;;14.20;6.50;;;;;;;17.81;55.15;99278.67;105782;1281;96559;-67
2022/07/08 04:43:38;;;;;;;11.90;6.50;;;;;;;17.80;55.16;99281.08;105797;1279;113405;-67
2022/07/08 04:46:12;;;;;;;11.70;6.20;;;;;;;17.80;55.29;99280.60;105838;1281;99931;-66
2022/07/08 04:48:42;;;;;;;15.10;6.90;;;;;;;17.79;55.43;99287.63;105747;1281;107820;-68
2022/07/08 04:51:11;;;;;;;11.90;6.20;;;;;;;17.78;55.19;99289.60;105785;1279;99297;-68
2022/07/08 04:53:41;;;;;;;16.90;6.10;;;;;;;17.76;55.32;99289.75;105851;1281;99257;-62
2022/07/08 04:56:11;;;;;;;13.10;5.90;;;;;;;17.75;55.22;99292.93;105809;1279;112802;-64
2022/07/08 04:58:42;;;;;;;11.50;5.80;;;;;;;17.73;55.47;99298.29;105850;1281;99362;-67
2022/07/08 05:01:09;;;;;;;13.40;6.90;;;;;;;17.73;55.26;99299.73;105826;1279;108785;-67
2022/07/08 05:03:42;;;;;;;13.90;5.70;;;;;;;17.71;55.38;99300.84;105875;1281;99174;-65
2022/07/08 05:06:10;;;;;;;14.70;6.00;;;;;;;17.68;55.45;99303.80;105820;1279;99234;-66
2022/07/08 05:08:40;;;;;;;14.10;6.20;;;;;;;17.65;55.39;99306.65;105812;1280;113735;-65
2022/07/08 05:11:14;;;;;;;13.00;5.90;;;;;;;17.63;55.60;99310.09;105912;1279;99488;-64
2022/07/08 05:13:42;;;;;;;11.00;5.90;;;;;;;17.62;55.59;99312.86;105893;1281;107768;-64
2022/07/08 05:16:10;;;;;;;17.10;6.60;;;;;;;17.61;55.60;99318.31;105911;1281;99206;-65
2022/07/08 05:18:41;;;;;;;15.00;6.70;;;;;;;17.59;55.74;99320.46;105916;1280;96628;-66
2022/07/08 05:21:11;;;;;;;12.00;6.20;;;;;;;17.56;55.69;99322.73;105937;1281;113109;-65
2022/07/08 05:23:39;;;;;;;14.50;7.00;;;;;;;17.55;55.89;99324.59;105914;1279;99081;-66
2022/07/08 05:26:07;;;;;;;12.80;6.20;;;;;;;17.55;55.88;99324.63;105918;1280;108159;-65
2022/07/08 05:28:37;;;;;;;15.20;6.80;;;;;;;17.57;56.15;99329.80;105951;1279;99378;-65
2022/07/08 05:31:05;;;;;;;14.60;6.20;;;;;;;17.60;56.04;99328.14;105993;1280;99102;-66
2022/07/08 05:33:33;;;;;;;15.10;6.70;;;;;;;17.61;56.22;99334.98;105887;1280;113361;-65
2022/07/08 05:36:03;;;;;;;21.70;7.00;;;;;;;17.63;56.15;99332.64;105877;1278;99208;-65
2022/07/08 05:38:34;;;;;;;15.10;7.40;;;;;;;17.65;56.42;99339.67;105851;1277;107606;-66
2022/07/08 05:41:04;;;;;;;15.20;7.00;;;;;;;17.63;56.24;99341.93;105877;1279;96662;-66
2022/07/08 05:43:34;;;;;;;18.20;7.30;;;;;;;17.64;56.38;99348.00;105920;1278;99186;-66
2022/07/08 05:46:05;;;;;;;11.90;6.70;;;;;;;17.61;56.44;99344.16;105834;1277;113799;-64
2022/07/08 05:48:35;;;;;;;15.70;7.20;;;;;;;17.59;56.44;99346.29;105912;1277;99033;-64
2022/07/08 05:51:06;;;;;;;12.10;6.20;;;;;;;17.57;56.51;99345.89;105888;1280;108598;-63
2022/07/08 05:53:44;;;;;;;13.70;6.60;;;;;;;17.55;56.68;99346.27;105886;1277;99263;-64
2022/07/08 05:56:15;;;;;;;15.10;6.90;;;;;;;17.53;56.61;99349.00;105885;1278;99186;-64
2022/07/08 05:58:43;;;;;;;15.70;6.80;;;;;;;17.51;56.66;99350.08;105929;1277;112735;-65
2022/07/08 06:01:13;;;;;;;11.60;6.60;;;;;;;17.51;56.75;99353.16;106036;1277;96617;-65
2022/07/08 06:03:43;;;;;;;13.00;7.00;;;;;;;17.52;56.86;99354.19;106005;1277;108298;-64
2022/07/08 06:06:11;;;;;;;13.70;7.10;;;;;;;17.54;56.93;99352.83;106022;1277;99795;-65
2022/07/08 06:08:44;;;;;;;17.10;7.50;;;;;;;17.57;57.07;99352.05;105966;1278;99238;-66
2022/07/08 06:11:12;;;;;;;15.30;7.20;;;;;;;17.58;57.05;99351.77;105919;1279;113419;-63
2022/07/08 06:13:40;;;;;;;16.50;7.70;;;;;;;17.60;57.02;99350.70;105935;1279;100418;-65
2022/07/08 06:16:12;;;;;;;14.30;7.30;;;;;;;17.61;56.99;99350.25;105884;1279;106700;-63
2022/07/08 06:18:43;;;;;;;16.40;7.30;;;;;;;17.59;57.10;99348.25;105933;1279;99283;-68
2022/07/08 06:21:13;;;;;;;16.70;7.50;;;;;;;17.57;57.23;99352.55;105820;1279;96600;-66
2022/07/08 06:23:41;;;;;;;16.00;7.00;;;;;;;17.51;57.18;99352.02;105729;1279;113396;-66
2022/07/08 06:26:11;;;;;;;13.90;7.30;;;;;;;17.47;57.13;99351.20;105875;1279;99226;-66
2022/07/08 06:28:41;;;;;;;16.00;7.30;;;;;;;17.44;57.24;99356.94;105885;1279;107895;-66
2022/07/08 06:31:11;;;;;;;17.30;7.90;;;;;;;17.42;57.39;99356.71;105753;1279;99112;-68
2022/07/08 06:33:44;;;;;;;15.20;7.20;;;;;;;17.45;57.42;99354.70;105809;1279;96643;-66
2022/07/08 06:36:18;;;;;;;19.80;7.90;;;;;;;17.48;57.61;99356.68;105814;1279;113447;-66
2022/07/08 06:38:46;;;;;;;17.10;7.60;;;;;;;17.51;57.71;99355.63;105840;1279;99319;-66
2022/07/08 06:41:16;;;;;;;15.80;7.90;;;;;;;17.54;57.67;99357.30;105839;1279;108902;-65
2022/07/08 06:43:49;;;;;;;17.30;7.50;;;;;;;17.58;57.70;99358.05;105842;1279;99243;-66
2022/07/08 06:46:19;;;;;;;14.40;7.70;;;;;;;17.60;57.76;99359.61;105851;1279;98425;-63
2022/07/08 06:48:47;;;;;;;16.90;7.90;;;;;;;17.64;57.77;99363.23;105820;1279;113366;-65
2022/07/08 06:51:16;;;;;;;16.40;8.00;;;;;;;17.67;57.74;99367.23;105783;1279;99225;-63
2022/07/08 06:56:37;;;;;;;13.20;6.60;;;;;;;17.73;58.04;99365.58;105754;1279;99288;-63
2022/07/08 06:59:07;;;;;;;16.20;7.50;;;;;;;17.78;58.02;99366.86;105915;1279;96657;-64
2022/07/08 07:01:38;;;;;;;14.90;7.60;;;;;;;17.85;58.07;99371.94;105907;1279;112755;-65
2022/07/08 07:04:09;;;;;;;16.30;6.90;;;;;;;17.89;58.08;99372.96;105847;1279;99357;-64
2022/07/08 07:06:40;;;;;;;14.20;7.50;;;;;;;17.91;58.16;99372.92;105814;1279;107803;-67
2022/07/08 07:09:09;;;;;;;16.40;7.70;;;;;;;17.94;58.13;99371.27;105808;1279;99269;-65
2022/07/08 07:11:42;;;;;;;15.90;7.60;;;;;;;17.98;58.26;99369.92;105783;1279;96649;-65
2022/07/08 07:14:11;;;;;;;12.60;6.80;;;;;;;18.00;58.17;99373.34;105900;1279;114204;-65
2022/07/08 07:16:41;;;;;;;13.60;6.80;;;;;;;18.03;58.19;99375.77;105896;1279;99336;-65
2022/07/08 07:19:12;;;;;;;15.20;7.50;;;;;;;18.02;58.30;99375.37;105828;1279;108198;-66
2022/07/08 07:21:42;;;;;;;15.80;7.00;;;;;;;18.00;58.25;99376.17;105748;1279;99950;-68
2022/07/08 07:24:10;;;;;;;14.10;7.00;;;;;;;18.00;58.36;99377.11;105853;1279;99232;-66
2022/07/08 07:26:40;;;;;;;14.10;6.60;;;;;;;18.03;58.59;99377.80;105904;1279;113300;-65
2022/07/08 07:29:10;;;;;;;16.60;6.50;;;;;;;18.06;58.65;99378.91;105856;1279;99235;-65
2022/07/08 07:31:38;;;;;;;14.70;6.60;;;;;;;18.08;58.52;99382.81;105845;1279;108644;-66
2022/07/08 07:34:08;;;;;;;12.30;6.00;;;;;;;18.10;58.41;99385.64;105820;1279;100844;-64
2022/07/08 07:36:41;;;;;;;15.60;6.70;;;;;;;18.13;58.66;99391.27;105773;1279;99249;-64
2022/07/08 07:39:09;;;;;;;13.90;6.30;;;;;;;18.13;58.42;99395.59;105862;1279;113499;-68
2022/07/08 07:41:42;;;;;;;14.50;6.60;;;;;;;18.13;58.41;99397.39;105888;1279;99308;-66
2022/07/08 07:44:12;;;;;;;14.20;6.20;;;;;;;18.14;58.57;99397.80;105776;1279;108477;-65
2022/07/08 07:46:42;;;;;;;11.70;6.20;;;;;;;18.15;58.48;99398.99;105741;1279;99304;-66
2022/07/08 07:49:13;;;;;;;13.30;6.10;;;;;;;18.17;58.54;99402.38;105786;1279;99233;-66
2022/07/08 07:51:43;;;;;;;11.00;5.80;;;;;;;18.18;58.55;99406.73;105810;1279;113373;-66
2022/07/08 07:54:11;;;;;;;14.50;7.00;;;;;;;18.20;58.52;99404.25;105939;1279;99292;-67
2022/07/08 07:56:40;;;;;;;11.60;6.10;;;;;;;18.21;58.66;99405.38;105863;1279;108432;-66
2022/07/08 07:59:08;;;;;;;11.10;5.80;;;;;;;18.22;58.50;99406.34;105785;1279;99382;-66
2022/07/08 08:01:38;;;;;;;17.00;6.60;;;;;;;18.23;58.60;99406.48;105872;1279;99426;-66
2022/07/08 08:04:09;;;;;;;12.60;5.90;;;;;;;18.25;58.58;99408.05;105902;1279;112380;-65
2022/07/08 08:06:39;;;;;;;12.40;6.20;;;;;;;18.27;58.74;99412.11;105878;1279;99216;-66
2022/07/08 08:09:09;;;;;;;11.50;6.00;;;;;;;18.30;58.77;99409.85;105863;1279;108727;-66
2022/07/08 08:11:37;;;;;;;12.30;5.50;;;;;;;18.33;58.71;99410.29;105812;1279;99231;-66
2022/07/08 08:14:07;;;;;;;14.10;6.30;;;;;;;18.36;58.54;99406.77;105850;1279;96664;-66
2022/07/08 08:16:37;;;;;;;12.30;5.80;;;;;;;18.38;58.68;99406.58;105789;1279;113719;-67
2022/07/08 08:19:09;;;;;;;12.50;6.10;;;;;;;18.42;58.76;99401.14;105864;1279;99334;-66
2022/07/08 08:21:40;;;;;;;13.30;6.00;;;;;;;18.45;58.75;99401.00;105904;1279;108357;-65
2022/07/08 08:24:08;;;;;;;11.40;6.40;;;;;;;18.48;58.65;99399.45;105878;1279;99385;-65
2022/07/08 08:26:43;;;;;;;;;;;;;;;18.52;58.69;99400.87;105858;1279;99223;-63
2022/07/08 08:29:13;;;;;;;15.30;6.20;;;;;;;18.53;58.67;99402.98;105877;1279;113296;-66
2022/07/08 08:31:42;;;;;;;11.30;5.60;;;;;;;18.56;58.59;99406.23;105850;1279;96705;-66
2022/07/08 08:34:12;;;;;;;14.50;5.90;;;;;;;18.59;58.73;99410.98;105857;1279;108474;-64
2022/07/08 08:36:42;;;;;;;14.60;5.60;;;;;;;18.60;58.73;99412.77;105875;1278;99363;-66
2022/07/08 08:39:14;;;;;;;12.70;5.90;;;;;;;18.64;58.81;99413.75;105850;1279;99353;-64
2022/07/08 08:41:44;;;;;;;11.90;6.10;;;;;;;18.65;58.73;99412.21;105888;1279;113321;-65
2022/07/08 08:44:14;;;;;;;11.10;6.20;;;;;;;18.64;58.79;99412.10;105753;1279;98347;-65
2022/07/08 08:46:46;;;;;;;16.80;7.10;;;;;;;18.64;58.87;99411.39;105798;1279;106819;-65
2022/07/08 08:49:22;;;;;;;16.10;7.60;;;;;;;18.65;58.88;99412.18;105898;1279;99378;-66
2022/07/08 08:51:54;;;;;;;16.40;8.10;;;;;;;18.66;58.97;99409.16;105850;1279;96968;-66
2022/07/08 08:54:24;;;;;;;18.00;9.20;;;;;;;18.70;58.97;99407.84;105787;1279;112642;-66
2022/07/08 08:56:56;;;;;;;16.10;8.10;;;;;;;18.72;58.97;99404.96;105835;1279;99915;-67
2022/07/08 08:59:29;;;;;;;17.80;8.20;;;;;;;18.74;59.03;99404.25;105810;1279;107692;-66
2022/07/08 09:01:59;;;;;;;16.50;7.60;;;;;;;18.77;58.98;99407.75;105890;1279;99259;-65
2022/07/08 09:04:32;;;;;;;15.90;7.60;;;;;;;18.81;59.12;99412.77;105925;1279;99251;-65
2022/07/08 09:07:00;;;;;;;14.10;7.70;;;;;;;18.82;58.94;99413.83;105806;1279;112538;-66
2022/07/08 09:09:39;;;;;;;17.10;8.60;;;;;;;18.86;59.17;99416.33;105775;1279;99294;-65
2022/07/08 09:12:18;;;;;;;22.20;8.50;;;;;;;18.87;59.26;99420.47;105823;1279;108288;-66
2022/07/08 09:14:52;;;;;;;16.50;9.10;;;;;;;18.91;59.15;99422.26;105744;1279;99337;-65
2022/07/08 09:17:22;;;;;;;16.90;8.00;;;;;;;18.93;59.09;99422.14;105832;1279;99104;-65
2022/07/08 09:19:53;;;;;;;19.30;8.80;;;;;;;18.94;59.22;99422.85;105853;1279;111578;-65
2022/07/08 09:22:23;;;;;;;15.90;7.70;;;;;;;18.99;59.26;99419.91;105762;1279;99246;-65
2022/07/08 09:24:57;;;;;;;17.60;8.60;;;;;;;19.02;59.22;99420.78;105862;1279;107861;-66
2022/07/08 09:27:25;;;;;;;17.70;8.30;;;;;;;19.09;59.32;99417.31;105886;1279;99340;-65
2022/07/08 09:30:00;;;;;;;17.80;9.50;;;;;;;19.12;59.27;99415.66;105790;1279;99342;-66
2022/07/08 09:32:30;;;;;;;20.10;9.60;;;;;;;19.16;59.39;99410.02;105847;1279;112694;-65
2022/07/08 09:34:58;;;;;;;18.30;9.20;;;;;;;19.21;59.41;99409.57;105842;1279;99381;-65
2022/07/08 09:37:34;;;;;;;16.50;9.50;;;;;;;19.26;59.47;99408.66;105916;1279;107938;-64
2022/07/08 09:40:01;;;;;;;17.80;9.20;;;;;;;19.31;59.44;99409.59;105773;1279;99249;-65
2022/07/08 09:42:42;;;;;;;20.20;10.20;;;;;;;19.36;59.42;99407.98;105765;1279;99269;-64
2022/07/08 09:45:09;;;;;;;19.00;9.50;;;;;;;19.41;59.37;99409.70;105769;1279;113426;-65
2022/07/08 09:47:39;;;;;;;18.70;9.70;;;;;;;19.44;59.45;99412.73;105781;1279;96750;-65
2022/07/08 09:50:10;;;;;;;19.40;9.00;;;;;;;19.49;59.49;99411.01;105755;1279;108434;-66
2022/07/08 09:52:38;;;;;;;17.00;9.30;;;;;;;19.53;59.50;99407.60;105789;1279;99234;-66
2022/07/08 09:55:20;;;;;;;18.70;9.40;;;;;;;19.58;59.46;99410.06;105759;1279;96640;-66
2022/07/08 09:57:51;;;;;;;15.20;8.40;;;;;;;19.61;59.59;99409.32;105807;1279;113286;-66
2022/07/08 10:00:24;;;;;;;17.50;8.70;;;;;;;19.68;59.62;99408.64;105802;1279;99260;-68
2022/07/08 10:02:55;;;;;;;14.70;8.20;;;;;;;19.73;59.56;99405.75;105733;1279;108415;-66
2022/07/08 10:05:26;;;;;;;16.40;7.90;;;;;;;19.81;59.50;99404.63;105771;1279;96771;-66
2022/07/08 10:07:54;;;;;;;13.90;8.10;;;;;;;19.86;59.53;99403.70;105885;1279;99326;-65
2022/07/08 10:10:28;;;;;;;18.20;8.20;;;;;;;19.90;59.46;99402.92;105830;1279;113496;-66
2022/07/08 10:13:02;;;;;;;16.50;8.40;;;;;;;19.94;59.48;99399.14;105801;1279;99129;-66
2022/07/08 10:15:34;;;;;;;21.70;9.20;;;;;;;19.99;59.52;99399.89;105808;1279;108099;-66
2022/07/08 10:18:20;;;;;;;16.00;8.10;;;;;;;20.03;59.51;99400.46;105811;1279;99356;-67
2022/07/08 10:20:53;;;;;;;16.00;7.90;;;;;;;20.09;59.52;99402.75;105927;1279;99261;-68
2022/07/08 10:23:40;;;;;;;18.00;9.10;;;;;;;20.15;59.64;99403.73;105913;1279;114815;-67
2022/07/08 10:26:12;;;;;;;14.90;8.30;;;;;;;20.21;59.52;99403.79;105950;1279;96672;-67
2022/07/08 10:28:43;;;;;;;16.60;8.10;;;;;;;20.25;59.48;99401.80;105911;1279;109094;-66
2022/07/08 10:31:26;;;;;;;15.10;7.20;;;;;;;20.30;59.53;99394.05;105884;1279;96667;-66
2022/07/08 10:34:03;;;;;;;13.90;7.40;;;;;;;20.35;59.47;99390.02;105873;1279;99362;-66
2022/07/08 10:36:46;;;;;;;14.50;7.80;;;;;;;20.42;59.48;99388.71;105899;1277;113325;-65
2022/07/08 10:39:23;;;;;;;;;;;;;;;20.50;59.37;99386.42;105926;1279;99324;-65
2022/07/08 10:42:05;;;;;;;15.60;7.40;;;;;;;20.55;59.49;99386.42;105805;1279;107771;-65
2022/07/08 10:44:42;;;;;;;14.30;7.20;;;;;;;20.64;59.44;99387.80;105784;1279;99327;-66
2022/07/08 10:47:16;;;;;;;14.90;6.70;;;;;;;20.71;59.30;99386.30;105805;1279;96715;-69
2022/07/08 10:49:48;;;;;;;15.80;7.40;;;;;;;20.80;59.39;99387.98;105756;1279;113444;-66
2022/07/08 10:52:34;;;;;;;12.20;6.10;;;;;;;20.90;59.25;99387.66;105727;1279;99327;-66
2022/07/08 10:55:13;;;;;;;19.60;9.70;;;;;;;21.00;59.09;99384.08;105747;1279;108289;-65
2022/07/08 10:57:55;;;;;;;16.40;7.90;;;;;;;21.09;58.86;99381.64;105814;1279;99145;-62
2022/07/08 11:00:26;;;;;;;13.80;6.60;;;;;;;21.21;59.11;99381.55;105798;1279;96535;-65
2022/07/08 11:02:59;;;;;;;13.00;5.40;;;;;;;21.37;59.10;99378.19;105836;1279;112674;-66
2022/07/08 11:05:42;;;;;;;11.40;5.10;;;;;;;21.53;58.87;99375.75;105878;1279;97742;-66
2022/07/08 11:08:18;;;;;;;10.20;5.10;;;;;;;21.69;58.87;99375.04;105855;1279;109128;-66
2022/07/08 11:10:51;;;;;;;11.10;5.10;;;;;;;21.88;58.59;99367.73;105898;1279;99323;-66
2022/07/08 11:13:23;;;;;;;9.30;4.40;;;;;;;21.99;58.56;99363.70;105902;1279;96638;-67
2022/07/08 11:15:53;;;;;;;7.80;4.40;;;;;;;22.00;58.41;99361.82;105789;1279;112276;-65
2022/07/08 11:18:25;;;;;;;8.50;4.10;;;;;;;22.04;58.10;99358.46;105780;1279;96770;-66
2022/07/08 11:21:00;;;;;;;9.80;4.30;;;;;;;22.11;58.22;99359.27;105771;1279;107526;-65
2022/07/08 11:23:32;;;;;;;8.30;4.50;;;;;;;22.23;58.17;99360.40;105815;1279;99148;-65
2022/07/08 11:26:04;;;;;;;8.90;4.50;;;;;;;22.33;58.04;99359.37;105881;1279;100036;-65
2022/07/08 11:28:37;;;;;;;8.90;4.50;;;;;;;22.39;57.95;99351.45;105900;1279;113447;-66
2022/07/08 11:31:25;;;;;;;9.60;4.40;;;;;;;22.46;57.85;99356.52;105902;1279;97935;-66
2022/07/08 11:33:56;;;;;;;9.70;4.40;;;;;;;22.51;57.63;99351.14;105856;1279;107118;-66
2022/07/08 11:36:24;;;;;;;10.30;4.10;;;;;;;22.58;57.83;99351.69;105842;1279;99238;-65